sensor_id;sensor_type;location;lat;lon;timestamp;pressure;altitude;pressure_sealevel;temperature;humidity
64675;BME280;51090;51.512;11.332;2022-11-20T00:01:22;99011.44;;;-3.37;100.00
64675;BME280;51090;51.512;11.332;2022-11-20T00:03:50;99007.41;;;-3.41;100.00
64675;BME280;51090;51.512;11.332;2022-11-20T00:06:18;99000.38;;;-3.39;100.00
64675;BME280;51090;51.512;11.332;2022-11-20T00:08:45;99002.44;;;-3.44;100.00
64675;BME280;51090;51.512;11.332;2022-11-20T00:11:20;99005.03;;;-3.44;100.00
64675;BME280;51090;51.512;11.332;2022-11-20T00:13:50;99002.31;;;-3.42;100.00
64675;BME280;51090;51.512;11.332;2022-11-20T00:16:19;99012.47;;;-3.39;100.00
64675;BME280;51090;51.512;11.332;2022-11-20T00:18:46;98989.91;;;-3.50;100.00
64675;BME280;51090;51.512;11.332;2022-11-20T00:21:16;99001.50;;;-3.43;100.00
64675;BME280;51090;51.512;11.332;2022-11-20T00:23:43;98995.91;;;-3.50;100.00
64675;BME280;51090;51.512;11.332;2022-11-20T00:26:13;98997.34;;;-3.45;100.00
64675;BME280;51090;51.512;11.332;2022-11-20T00:28:39;99002.75;;;-3.48;100.00
64675;BME280;51090;51.512;11.332;2022-11-20T00:31:12;98999.22;;;-3.47;100.00
64675;BME280;51090;51.512;11.332;2022-11-20T00:33:39;98988.56;;;-3.56;100.00
64675;BME280;51090;51.512;11.332;2022-11-20T00:36:10;98985.88;;;-3.54;100.00
64675;BME280;51090;51.512;11.332;2022-11-20T00:38:36;98998.09;;;-3.56;100.00
64675;BME280;51090;51.512;11.332;2022-11-20T00:41:06;98989.81;;;-3.61;100.00
64675;BME280;51090;51.512;11.332;2022-11-20T00:43:33;98996.03;;;-3.64;100.00
64675;BME280;51090;51.512;11.332;2022-11-20T00:46:12;98997.69;;;-3.63;100.00
64675;BME280;51090;51.512;11.332;2022-11-20T00:48:38;98990.44;;;-3.70;100.00
64675;BME280;51090;51.512;11.332;2022-11-20T00:51:04;98982.16;;;-3.76;100.00
64675;BME280;51090;51.512;11.332;2022-11-20T00:53:30;98990.34;;;-3.69;100.00
64675;BME280;51090;51.512;11.332;2022-11-20T00:58:24;98984.44;;;-3.71;100.00
64675;BME280;51090;51.512;11.332;2022-11-20T01:00:51;98989.72;;;-3.73;100.00
64675;BME280;51090;51.512;11.332;2022-11-20T01:03:18;98986.06;;;-3.70;100.00
64675;BME280;51090;51.512;11.332;2022-11-20T01:05:44;98983.91;;;-3.76;100.00
64675;BME280;51090;51.512;11.332;2022-11-20T01:08:10;98981.25;;;-3.75;100.00
64675;BME280;51090;51.512;11.332;2022-11-20T01:10:36;98977.09;;;-3.77;100.00
64675;BME280;51090;51.512;11.332;2022-11-20T01:13:02;98978.75;;;-3.76;100.00
64675;BME280;51090;51.512;11.332;2022-11-20T01:15:46;98977.28;;;-3.80;100.00
64675;BME280;51090;51.512;11.332;2022-11-20T01:18:11;98983.31;;;-3.80;100.00
64675;BME280;51090;51.512;11.332;2022-11-20T01:20:37;98978.22;;;-3.81;100.00
64675;BME280;51090;51.512;11.332;2022-11-20T01:23:03;98974.00;;;-3.82;100.00
64675;BME280;51090;51.512;11.332;2022-11-20T01:25:29;98967.97;;;-3.83;100.00
64675;BME280;51090;51.512;11.332;2022-11-20T01:27:55;98977.41;;;-3.82;100.00
64675;BME280;51090;51.512;11.332;2022-11-20T01:30:21;98972.22;;;-3.82;100.00
64675;BME280;51090;51.512;11.332;2022-11-20T01:32:47;98966.41;;;-3.85;100.00
64675;BME280;51090;51.512;11.332;2022-11-20T01:35:12;98964.84;;;-3.88;100.00
64675;BME280;51090;51.512;11.332;2022-11-20T01:37:38;98968.38;;;-3.89;100.00
64675;BME280;51090;51.512;11.332;2022-11-20T01:40:05;98964.47;;;-3.95;100.00
64675;BME280;51090;51.512;11.332;2022-11-20T01:42:31;98968.00;;;-3.96;100.00
64675;BME280;51090;51.512;11.332;2022-11-20T01:46:00;98957.22;;;-3.89;100.00
64675;BME280;51090;51.512;11.332;2022-11-20T01:48:48;98968.28;;;-3.87;100.00
64675;BME280;51090;51.512;11.332;2022-11-20T01:51:35;98967.78;;;-3.92;100.00
64675;BME280;51090;51.512;11.332;2022-11-20T01:54:08;98964.56;;;-3.96;100.00
64675;BME280;51090;51.512;11.332;2022-11-20T01:56:38;98949.34;;;-4.01;100.00
64675;BME280;51090;51.512;11.332;2022-11-20T01:59:07;98959.59;;;-3.99;100.00
64675;BME280;51090;51.512;11.332;2022-11-20T02:01:34;98957.22;;;-4.02;100.00
64675;BME280;51090;51.512;11.332;2022-11-20T02:04:01;98950.47;;;-4.05;100.00
64675;BME280;51090;51.512;11.332;2022-11-20T02:06:47;98952.63;;;-3.99;100.00
64675;BME280;51090;51.512;11.332;2022-11-20T02:09:15;98957.22;;;-4.02;100.00
64675;BME280;51090;51.512;11.332;2022-11-20T02:11:41;98953.88;;;-4.04;100.00
64675;BME280;51090;51.512;11.332;2022-11-20T02:14:08;98954.72;;;-4.04;100.00
64675;BME280;51090;51.512;11.332;2022-11-20T02:16:37;98948.84;;;-4.06;100.00
64675;BME280;51090;51.512;11.332;2022-11-20T02:19:09;98956.59;;;-4.06;100.00
64675;BME280;51090;51.512;11.332;2022-11-20T02:21:47;98968.59;;;-4.05;100.00
64675;BME280;51090;51.512;11.332;2022-11-20T02:24:18;98953.28;;;-4.08;100.00
64675;BME280;51090;51.512;11.332;2022-11-20T02:29:46;98959.06;;;-4.04;100.00
64675;BME280;51090;51.512;11.332;2022-11-20T02:32:26;98958.34;;;-4.06;100.00
64675;BME280;51090;51.512;11.332;2022-11-20T02:34:52;98945.00;;;-4.13;100.00
64675;BME280;51090;51.512;11.332;2022-11-20T02:37:20;98949.97;;;-4.10;100.00
64675;BME280;51090;51.512;11.332;2022-11-20T02:39:50;98942.28;;;-4.11;100.00
64675;BME280;51090;51.512;11.332;2022-11-20T02:42:17;98949.34;;;-4.13;100.00
64675;BME280;51090;51.512;11.332;2022-11-20T02:44:43;98938.34;;;-4.17;100.00
64675;BME280;51090;51.512;11.332;2022-11-20T02:47:09;98937.31;;;-4.14;100.00
64675;BME280;51090;51.512;11.332;2022-11-20T02:49:35;98929.03;;;-4.20;100.00
64675;BME280;51090;51.512;11.332;2022-11-20T02:52:01;98930.72;;;-4.19;100.00
64675;BME280;51090;51.512;11.332;2022-11-20T02:54:27;98931.09;;;-4.25;100.00
64675;BME280;51090;51.512;11.332;2022-11-20T02:56:53;98920.75;;;-4.25;100.00
64675;BME280;51090;51.512;11.332;2022-11-20T02:59:19;98923.47;;;-4.26;100.00
64675;BME280;51090;51.512;11.332;2022-11-20T03:01:44;98922.53;;;-4.25;100.00
64675;BME280;51090;51.512;11.332;2022-11-20T03:04:10;98922.59;;;-4.27;100.00
64675;BME280;51090;51.512;11.332;2022-11-20T03:06:36;98926.13;;;-4.28;100.00
64675;BME280;51090;51.512;11.332;2022-11-20T03:09:02;98919.41;;;-4.30;100.00
64675;BME280;51090;51.512;11.332;2022-11-20T03:11:28;98910.91;;;-4.32;100.00
64675;BME280;51090;51.512;11.332;2022-11-20T03:13:54;98919.72;;;-4.35;100.00
64675;BME280;51090;51.512;11.332;2022-11-20T03:16:22;98919.63;;;-4.33;100.00
64675;BME280;51090;51.512;11.332;2022-11-20T03:18:49;98918.97;;;-4.37;100.00
64675;BME280;51090;51.512;11.332;2022-11-20T03:21:15;98918.06;;;-4.36;100.00
64675;BME280;51090;51.512;11.332;2022-11-20T03:23:42;98907.06;;;-4.40;100.00
64675;BME280;51090;51.512;11.332;2022-11-20T03:26:23;98912.25;;;-4.40;100.00
64675;BME280;51090;51.512;11.332;2022-11-20T03:29:00;98905.53;;;-4.42;100.00
64675;BME280;51090;51.512;11.332;2022-11-20T03:31:38;98906.69;;;-4.46;100.00
64675;BME280;51090;51.512;11.332;2022-11-20T03:34:07;98905.13;;;-4.49;100.00
64675;BME280;51090;51.512;11.332;2022-11-20T03:36:34;98911.34;;;-4.51;100.00
64675;BME280;51090;51.512;11.332;2022-11-20T03:39:00;98902.94;;;-4.55;100.00
64675;BME280;51090;51.512;11.332;2022-11-20T03:41:29;98903.66;;;-4.53;100.00
64675;BME280;51090;51.512;11.332;2022-11-20T03:43:59;98902.94;;;-4.55;100.00
64675;BME280;51090;51.512;11.332;2022-11-20T03:46:26;98884.28;;;-4.60;100.00
64675;BME280;51090;51.512;11.332;2022-11-20T03:48:53;98895.50;;;-4.60;100.00
64675;BME280;51090;51.512;11.332;2022-11-20T03:51:21;98903.13;;;-4.58;100.00
64675;BME280;51090;51.512;11.332;2022-11-20T03:53:49;98894.56;;;-4.58;100.00
64675;BME280;51090;51.512;11.332;2022-11-20T03:56:17;98905.84;;;-4.60;100.00
64675;BME280;51090;51.512;11.332;2022-11-20T03:58:43;98891.44;;;-4.64;100.00
64675;BME280;51090;51.512;11.332;2022-11-20T04:01:16;98907.41;;;-4.57;100.00
64675;BME280;51090;51.512;11.332;2022-11-20T04:03:43;98905.00;;;-4.60;100.00
64675;BME280;51090;51.512;11.332;2022-11-20T04:06:13;98901.50;;;-4.59;100.00
64675;BME280;51090;51.512;11.332;2022-11-20T04:08:40;98901.06;;;-4.66;100.00
64675;BME280;51090;51.512;11.332;2022-11-20T04:13:39;98899.72;;;-4.71;100.00
64675;BME280;51090;51.512;11.332;2022-11-20T04:16:06;98911.53;;;-4.67;100.00
64675;BME280;51090;51.512;11.332;2022-11-20T04:18:33;98913.16;;;-4.66;100.00
64675;BME280;51090;51.512;11.332;2022-11-20T04:20:59;98907.69;;;-4.74;100.00
64675;BME280;51090;51.512;11.332;2022-11-20T04:23:26;98903.84;;;-4.82;100.00
64675;BME280;51090;51.512;11.332;2022-11-20T04:25:52;98895.22;;;-4.95;100.00
64675;BME280;51090;51.512;11.332;2022-11-20T04:28:18;98896.66;;;-4.91;100.00
64675;BME280;51090;51.512;11.332;2022-11-20T04:30:43;98894.41;;;-4.95;100.00
64675;BME280;51090;51.512;11.332;2022-11-20T04:33:09;98904.34;;;-4.89;100.00
64675;BME280;51090;51.512;11.332;2022-11-20T04:35:36;98897.41;;;-4.89;100.00
64675;BME280;51090;51.512;11.332;2022-11-20T04:38:03;98899.47;;;-4.94;100.00
64675;BME280;51090;51.512;11.332;2022-11-20T04:40:29;98902.88;;;-4.93;100.00
64675;BME280;51090;51.512;11.332;2022-11-20T04:42:55;98901.13;;;-4.93;100.00
64675;BME280;51090;51.512;11.332;2022-11-20T04:45:22;98908.78;;;-4.91;100.00
64675;BME280;51090;51.512;11.332;2022-11-20T04:47:49;98895.22;;;-4.95;100.00
64675;BME280;51090;51.512;11.332;2022-11-20T04:50:15;98902.03;;;-4.94;100.00
64675;BME280;51090;51.512;11.332;2022-11-20T04:52:41;98899.88;;;-5.00;100.00
64675;BME280;51090;51.512;11.332;2022-11-20T04:55:07;98900.69;;;-4.99;100.00
64675;BME280;51090;51.512;11.332;2022-11-20T04:57:33;98885.38;;;-5.03;100.00
64675;BME280;51090;51.512;11.332;2022-11-20T04:59:59;98892.00;;;-4.98;100.00
64675;BME280;51090;51.512;11.332;2022-11-20T05:02:24;98879.38;;;-5.03;100.00
64675;BME280;51090;51.512;11.332;2022-11-20T05:04:50;98885.47;;;-5.04;100.00
64675;BME280;51090;51.512;11.332;2022-11-20T05:07:16;98881.97;;;-5.03;100.00
64675;BME280;51090;51.512;11.332;2022-11-20T05:09:42;98881.25;;;-5.05;100.00
64675;BME280;51090;51.512;11.332;2022-11-20T05:12:08;98878.66;;;-5.05;100.00
64675;BME280;51090;51.512;11.332;2022-11-20T05:14:34;98874.31;;;-5.05;100.00
64675;BME280;51090;51.512;11.332;2022-11-20T05:17:00;98874.28;;;-5.17;100.00
64675;BME280;51090;51.512;11.332;2022-11-20T05:19:26;98871.78;;;-5.19;100.00
64675;BME280;51090;51.512;11.332;2022-11-20T05:21:52;98867.84;;;-5.25;100.00
64675;BME280;51090;51.512;11.332;2022-11-20T05:24:18;98866.94;;;-5.23;100.00
64675;BME280;51090;51.512;11.332;2022-11-20T05:26:43;98865.47;;;-5.28;100.00
64675;BME280;51090;51.512;11.332;2022-11-20T05:29:12;98874.47;;;-5.20;100.00
64675;BME280;51090;51.512;11.332;2022-11-20T05:31:40;98861.03;;;-5.26;100.00
64675;BME280;51090;51.512;11.332;2022-11-20T05:34:06;98859.38;;;-5.27;100.00
64675;BME280;51090;51.512;11.332;2022-11-20T05:36:32;98858.53;;;-5.27;100.00
64675;BME280;51090;51.512;11.332;2022-11-20T05:38:58;98866.28;;;-5.27;100.00
64675;BME280;51090;51.512;11.332;2022-11-20T05:41:24;98865.47;;;-5.28;100.00
64675;BME280;51090;51.512;11.332;2022-11-20T05:43:51;98863.69;;;-5.27;100.00
64675;BME280;51090;51.512;11.332;2022-11-20T05:46:20;98867.13;;;-5.27;100.00
64675;BME280;51090;51.512;11.332;2022-11-20T05:48:46;98864.72;;;-5.30;100.00
64675;BME280;51090;51.512;11.332;2022-11-20T05:51:16;98875.78;;;-5.28;100.00
64675;BME280;51090;51.512;11.332;2022-11-20T05:53:43;98875.19;;;-5.31;100.00
64675;BME280;51090;51.512;11.332;2022-11-20T05:56:16;98876.81;;;-5.30;100.00
64675;BME280;51090;51.512;11.332;2022-11-20T05:58:43;98863.66;;;-5.40;100.00
64675;BME280;51090;51.512;11.332;2022-11-20T06:01:14;98870.09;;;-5.33;100.00
64675;BME280;51090;51.512;11.332;2022-11-20T06:03:42;98872.78;;;-5.34;100.00
64675;BME280;51090;51.512;11.332;2022-11-20T06:06:11;98866.34;;;-5.41;100.00
64675;BME280;51090;51.512;11.332;2022-11-20T06:08:37;98842.94;;;-5.53;100.00
64675;BME280;51090;51.512;11.332;2022-11-20T06:11:08;98880.97;;;-5.28;100.00
64675;BME280;51090;51.512;11.332;2022-11-20T06:13:35;98878.50;;;-5.29;100.00
64675;BME280;51090;51.512;11.332;2022-11-20T06:16:01;98881.91;;;-5.29;100.00
64675;BME280;51090;51.512;11.332;2022-11-20T06:18:29;98888.19;;;-5.33;100.00
64675;BME280;51090;51.512;11.332;2022-11-20T06:21:10;98880.00;;;-5.39;100.00
64675;BME280;51090;51.512;11.332;2022-11-20T06:23:37;98898.72;;;-5.36;100.00
64675;BME280;51090;51.512;11.332;2022-11-20T06:26:07;98891.41;;;-5.29;100.00
64675;BME280;51090;51.512;11.332;2022-11-20T06:28:34;98889.44;;;-5.26;100.00
64675;BME280;51090;51.512;11.332;2022-11-20T06:31:00;98889.16;;;-5.21;100.00
64675;BME280;51090;51.512;11.332;2022-11-20T06:33:26;98890.72;;;-5.18;100.00
64675;BME280;51090;51.512;11.332;2022-11-20T06:35:56;98889.38;;;-5.11;100.00
64675;BME280;51090;51.512;11.332;2022-11-20T06:38:22;98884.66;;;-5.05;100.00
64675;BME280;51090;51.512;11.332;2022-11-20T06:40:47;98883.41;;;-4.99;100.00
64675;BME280;51090;51.512;11.332;2022-11-20T06:43:13;98880.53;;;-4.94;100.00
64675;BME280;51090;51.512;11.332;2022-11-20T06:45:39;98885.22;;;-4.87;100.00
64675;BME280;51090;51.512;11.332;2022-11-20T06:48:05;98890.41;;;-4.74;100.00
64675;BME280;51090;51.512;11.332;2022-11-20T06:50:30;98880.66;;;-4.70;100.00
64675;BME280;51090;51.512;11.332;2022-11-20T06:52:56;98886.78;;;-4.58;100.00
64675;BME280;51090;51.512;11.332;2022-11-20T06:55:22;98891.88;;;-4.44;100.00
64675;BME280;51090;51.512;11.332;2022-11-20T06:57:47;98892.56;;;-4.29;100.00
64675;BME280;51090;51.512;11.332;2022-11-20T07:00:14;98891.16;;;-4.21;100.00
64675;BME280;51090;51.512;11.332;2022-11-20T07:02:40;98891.16;;;-4.21;100.00
64675;BME280;51090;51.512;11.332;2022-11-20T07:05:06;98893.63;;;-4.19;100.00
64675;BME280;51090;51.512;11.332;2022-11-20T07:07:31;98882.66;;;-4.23;100.00
64675;BME280;51090;51.512;11.332;2022-11-20T07:09:57;98887.00;;;-4.23;100.00
64675;BME280;51090;51.512;11.332;2022-11-20T07:12:23;98880.28;;;-4.26;100.00
64675;BME280;51090;51.512;11.332;2022-11-20T07:14:48;98880.56;;;-4.18;100.00
64675;BME280;51090;51.512;11.332;2022-11-20T07:17:14;98871.53;;;-4.12;100.00
64675;BME280;51090;51.512;11.332;2022-11-20T07:19:40;98862.94;;;-4.00;100.00
64675;BME280;51090;51.512;11.332;2022-11-20T07:22:06;98867.88;;;-3.84;100.00
64675;BME280;51090;51.512;11.332;2022-11-20T07:24:31;98867.41;;;-3.78;100.00
64675;BME280;51090;51.512;11.332;2022-11-20T07:26:57;98858.59;;;-3.75;100.00
64675;BME280;51090;51.512;11.332;2022-11-20T07:29:23;98865.69;;;-3.77;100.00
64675;BME280;51090;51.512;11.332;2022-11-20T07:31:48;98862.25;;;-3.78;100.00
64675;BME280;51090;51.512;11.332;2022-11-20T07:34:14;98859.59;;;-3.65;100.00
64675;BME280;51090;51.512;11.332;2022-11-20T07:36:40;98839.59;;;-3.63;100.00
64675;BME280;51090;51.512;11.332;2022-11-20T07:39:06;98851.22;;;-3.44;100.00
64675;BME280;51090;51.512;11.332;2022-11-20T07:41:31;98847.50;;;-3.40;100.00
64675;BME280;51090;51.512;11.332;2022-11-20T07:43:59;98852.84;;;-3.31;100.00
64675;BME280;51090;51.512;11.332;2022-11-20T07:46:24;98854.16;;;-3.25;100.00
64675;BME280;51090;51.512;11.332;2022-11-20T07:48:50;98860.06;;;-3.23;100.00
64675;BME280;51090;51.512;11.332;2022-11-20T07:51:16;98851.47;;;-3.23;100.00
64675;BME280;51090;51.512;11.332;2022-11-20T07:53:42;98848.75;;;-3.22;100.00
64675;BME280;51090;51.512;11.332;2022-11-20T07:56:07;98840.03;;;-3.21;100.00
64675;BME280;51090;51.512;11.332;2022-11-20T07:58:33;98841.03;;;-3.11;100.00
64675;BME280;51090;51.512;11.332;2022-11-20T08:01:07;98843.66;;;-2.99;100.00
64675;BME280;51090;51.512;11.332;2022-11-20T08:03:33;98830.09;;;-3.03;100.00
64675;BME280;51090;51.512;11.332;2022-11-20T08:06:00;98851.00;;;-2.82;100.00
64675;BME280;51090;51.512;11.332;2022-11-20T08:08:27;98852.06;;;-2.73;100.00
64675;BME280;51090;51.512;11.332;2022-11-20T08:10:53;98849.03;;;-2.67;100.00
64675;BME280;51090;51.512;11.332;2022-11-20T08:13:39;98854.97;;;-2.54;100.00
64675;BME280;51090;51.512;11.332;2022-11-20T08:16:22;98861.44;;;-2.37;100.00
64675;BME280;51090;51.512;11.332;2022-11-20T08:18:48;98860.41;;;-2.23;100.00
64675;BME280;51090;51.512;11.332;2022-11-20T08:21:15;98864.78;;;-2.12;100.00
64675;BME280;51090;51.512;11.332;2022-11-20T08:23:40;98848.22;;;-2.11;100.00
64675;BME280;51090;51.512;11.332;2022-11-20T08:26:06;98852.47;;;-1.99;100.00
64675;BME280;51090;51.512;11.332;2022-11-20T08:28:32;98862.38;;;-1.93;100.00
64675;BME280;51090;51.512;11.332;2022-11-20T08:31:00;98865.84;;;-1.92;100.00
64675;BME280;51090;51.512;11.332;2022-11-20T08:33:26;98871.38;;;-1.86;100.00
64675;BME280;51090;51.512;11.332;2022-11-20T08:35:51;98869.59;;;-1.74;100.00
64675;BME280;51090;51.512;11.332;2022-11-20T08:38:17;98862.00;;;-1.66;100.00
64675;BME280;51090;51.512;11.332;2022-11-20T08:40:43;98864.34;;;-1.51;100.00
64675;BME280;51090;51.512;11.332;2022-11-20T08:43:28;98822.50;;;-1.60;100.00
64675;BME280;51090;51.512;11.332;2022-11-20T08:45:57;98861.84;;;-1.21;100.00
64675;BME280;51090;51.512;11.332;2022-11-20T08:48:23;98867.75;;;-1.07;100.00
64675;BME280;51090;51.512;11.332;2022-11-20T08:50:48;98862.59;;;-0.98;100.00
64675;BME280;51090;51.512;11.332;2022-11-20T08:53:14;98861.59;;;-0.85;100.00
64675;BME280;51090;51.512;11.332;2022-11-20T08:55:40;98851.00;;;-0.73;100.00
64675;BME280;51090;51.512;11.332;2022-11-20T08:58:06;98858.34;;;-0.57;100.00
64675;BME280;51090;51.512;11.332;2022-11-20T09:00:33;98861.97;;;-0.48;100.00
64675;BME280;51090;51.512;11.332;2022-11-20T09:03:00;98847.00;;;-0.56;100.00
64675;BME280;51090;51.512;11.332;2022-11-20T09:05:27;98863.56;;;-0.36;100.00
64675;BME280;51090;51.512;11.332;2022-11-20T09:07:56;98873.34;;;-0.28;100.00
64675;BME280;51090;51.512;11.332;2022-11-20T09:10:23;98859.06;;;-0.24;100.00
64675;BME280;51090;51.512;11.332;2022-11-20T09:12:51;98858.13;;;-0.23;100.00
64675;BME280;51090;51.512;11.332;2022-11-20T09:15:18;98857.88;;;-0.20;100.00
64675;BME280;51090;51.512;11.332;2022-11-20T09:18:02;98863.38;;;-0.13;100.00
64675;BME280;51090;51.512;11.332;2022-11-20T09:20:29;98862.28;;;-0.11;100.00
64675;BME280;51090;51.512;11.332;2022-11-20T09:22:56;98848.97;;;-0.17;100.00
64675;BME280;51090;51.512;11.332;2022-11-20T09:25:22;98856.25;;;-0.11;100.00
64675;BME280;51090;51.512;11.332;2022-11-20T09:27:54;98853.56;;;0.00;100.00
64675;BME280;51090;51.512;11.332;2022-11-20T09:30:20;98853.72;;;0.18;100.00
64675;BME280;51090;51.512;11.332;2022-11-20T09:32:46;98851.47;;;0.34;100.00
64675;BME280;51090;51.512;11.332;2022-11-20T09:35:11;98849.28;;;0.39;100.00
64675;BME280;51090;51.512;11.332;2022-11-20T09:37:37;98854.09;;;0.44;100.00
64675;BME280;51090;51.512;11.332;2022-11-20T09:40:04;98863.84;;;0.52;100.00
64675;BME280;51090;51.512;11.332;2022-11-20T09:51:25;98837.09;;;0.59;100.00
64675;BME280;51090;51.512;11.332;2022-11-20T09:56:36;98841.88;;;0.64;100.00
64675;BME280;51090;51.512;11.332;2022-11-20T09:59:05;98838.16;;;0.67;100.00
64675;BME280;51090;51.512;11.332;2022-11-20T10:01:36;98831.72;;;0.71;100.00
64675;BME280;51090;51.512;11.332;2022-11-20T10:09:37;98823.22;;;0.88;100.00
64675;BME280;51090;51.512;11.332;2022-11-20T10:15:29;98815.91;;;1.11;100.00
64675;BME280;51090;51.512;11.332;2022-11-20T10:29:38;98796.00;;;0.91;100.00
64675;BME280;51090;51.512;11.332;2022-11-20T10:32:18;98797.94;;;0.89;100.00
64675;BME280;51090;51.512;11.332;2022-11-20T10:34:59;98799.84;;;0.86;100.00
64675;BME280;51090;51.512;11.332;2022-11-20T10:37:29;98790.66;;;0.82;100.00
64675;BME280;51090;51.512;11.332;2022-11-20T10:40:22;98799.84;;;0.86;100.00
64675;BME280;51090;51.512;11.332;2022-11-20T10:42:56;98783.09;;;0.79;100.00
64675;BME280;51090;51.512;11.332;2022-11-20T10:50:35;98783.53;;;0.75;100.00
64675;BME280;51090;51.512;11.332;2022-11-20T10:53:35;98782.44;;;0.77;100.00
64675;BME280;51090;51.512;11.332;2022-11-20T10:56:41;98770.88;;;0.80;100.00
64675;BME280;51090;51.512;11.332;2022-11-20T11:05:31;98769.78;;;0.82;100.00
64675;BME280;51090;51.512;11.332;2022-11-20T11:07:59;98766.19;;;0.83;100.00
64675;BME280;51090;51.512;11.332;2022-11-20T11:10:57;98764.81;;;0.89;100.00
64675;BME280;51090;51.512;11.332;2022-11-20T11:13:29;98765.50;;;0.91;100.00
64675;BME280;51090;51.512;11.332;2022-11-20T11:15:57;98768.81;;;0.93;100.00
64675;BME280;51090;51.512;11.332;2022-11-20T11:18:25;98754.78;;;0.94;100.00
64675;BME280;51090;51.512;11.332;2022-11-20T11:20:53;98749.13;;;0.99;100.00
64675;BME280;51090;51.512;11.332;2022-11-20T11:23:34;98754.47;;;1.07;100.00
64675;BME280;51090;51.512;11.332;2022-11-20T11:26:02;98756.66;;;1.12;100.00
64675;BME280;51090;51.512;11.332;2022-11-20T11:28:29;98756.38;;;1.15;100.00
64675;BME280;51090;51.512;11.332;2022-11-20T11:30:55;98760.22;;;1.20;100.00
64675;BME280;51090;51.512;11.332;2022-11-20T11:33:31;98757.06;;;1.26;100.00
64675;BME280;51090;51.512;11.332;2022-11-20T11:36:19;98744.00;;;1.26;100.00
64675;BME280;51090;51.512;11.332;2022-11-20T11:38:45;98740.28;;;1.29;100.00
64675;BME280;51090;51.512;11.332;2022-11-20T11:41:34;98740.22;;;1.39;100.00
64675;BME280;51090;51.512;11.332;2022-11-20T11:44:28;98738.16;;;1.42;100.00
64675;BME280;51090;51.512;11.332;2022-11-20T11:47:46;98732.34;;;1.48;100.00
64675;BME280;51090;51.512;11.332;2022-11-20T11:50:19;98736.44;;;1.51;100.00
64675;BME280;51090;51.512;11.332;2022-11-20T11:53:08;98738.63;;;1.56;100.00
64675;BME280;51090;51.512;11.332;2022-11-20T11:55:54;98739.47;;;1.56;100.00
64675;BME280;51090;51.512;11.332;2022-11-20T12:01:48;98732.69;;;1.63;100.00
64675;BME280;51090;51.512;11.332;2022-11-20T12:04:52;98734.06;;;1.67;100.00
64675;BME280;51090;51.512;11.332;2022-11-20T12:07:45;98727.56;;;1.71;100.00
64675;BME280;51090;51.512;11.332;2022-11-20T12:16:15;98706.22;;;1.76;100.00
64675;BME280;51090;51.512;11.332;2022-11-20T12:18:43;98707.56;;;1.80;100.00
64675;BME280;51090;51.512;11.332;2022-11-20T12:24:04;98709.97;;;1.91;100.00
64675;BME280;51090;51.512;11.332;2022-11-20T12:26:47;98706.25;;;1.94;100.00
64675;BME280;51090;51.512;11.332;2022-11-20T12:32:54;98696.47;;;1.96;100.00
64675;BME280;51090;51.512;11.332;2022-11-20T12:36:07;98705.00;;;1.98;100.00
64675;BME280;51090;51.512;11.332;2022-11-20T12:48:30;98716.41;;;2.15;100.00
64675;BME280;51090;51.512;11.332;2022-11-20T13:00:18;98674.81;;;2.22;100.00
64675;BME280;51090;51.512;11.332;2022-11-20T13:06:17;98663.22;;;2.24;100.00
64675;BME280;51090;51.512;11.332;2022-11-20T13:09:02;98669.78;;;2.28;100.00
64675;BME280;51090;51.512;11.332;2022-11-20T13:11:39;98670.75;;;2.27;100.00
64675;BME280;51090;51.512;11.332;2022-11-20T13:14:26;98673.38;;;2.27;100.00
64675;BME280;51090;51.512;11.332;2022-11-20T13:17:11;98679.28;;;2.29;100.00
64675;BME280;51090;51.512;11.332;2022-11-20T13:19:39;98675.47;;;2.24;100.00
64675;BME280;51090;51.512;11.332;2022-11-20T13:22:05;98661.03;;;2.20;100.00
64675;BME280;51090;51.512;11.332;2022-11-20T13:24:32;98666.50;;;2.26;100.00
64675;BME280;51090;51.512;11.332;2022-11-20T13:29:43;98671.13;;;2.32;100.00
64675;BME280;51090;51.512;11.332;2022-11-20T13:32:18;98668.66;;;2.31;100.00
64675;BME280;51090;51.512;11.332;2022-11-20T13:34:57;98678.00;;;2.33;100.00
64675;BME280;51090;51.512;11.332;2022-11-20T13:37:36;98671.81;;;2.34;100.00
64675;BME280;51090;51.512;11.332;2022-11-20T13:45:30;98677.53;;;2.38;100.00
64675;BME280;51090;51.512;11.332;2022-11-20T13:48:02;98675.91;;;2.37;100.00
64675;BME280;51090;51.512;11.332;2022-11-20T13:53:57;98675.91;;;2.37;100.00
64675;BME280;51090;51.512;11.332;2022-11-20T13:56:58;98680.59;;;2.33;100.00
64675;BME280;51090;51.512;11.332;2022-11-20T13:59:46;98689.31;;;2.34;100.00
64675;BME280;51090;51.512;11.332;2022-11-20T14:02:18;98694.53;;;2.34;100.00
64675;BME280;51090;51.512;11.332;2022-11-20T14:04:49;98688.63;;;2.32;100.00
64675;BME280;51090;51.512;11.332;2022-11-20T14:07:20;98676.75;;;2.20;100.00
64675;BME280;51090;51.512;11.332;2022-11-20T14:09:56;98695.66;;;2.31;100.00
64675;BME280;51090;51.512;11.332;2022-11-20T14:12:29;98690.69;;;2.28;100.00
64675;BME280;51090;51.512;11.332;2022-11-20T14:14:55;98687.72;;;2.23;100.00
64675;BME280;51090;51.512;11.332;2022-11-20T14:17:32;98684.97;;;2.25;100.00
64675;BME280;51090;51.512;11.332;2022-11-20T14:20:05;98680.72;;;2.24;100.00
64675;BME280;51090;51.512;11.332;2022-11-20T14:22:32;98681.28;;;2.17;100.00
64675;BME280;51090;51.512;11.332;2022-11-20T14:25:04;98660.44;;;2.08;100.00
64675;BME280;51090;51.512;11.332;2022-11-20T14:27:33;98673.75;;;2.14;100.00
64675;BME280;51090;51.512;11.332;2022-11-20T14:30:01;98673.69;;;2.06;100.00
64675;BME280;51090;51.512;11.332;2022-11-20T14:32:29;98663.53;;;2.03;100.00
64675;BME280;51090;51.512;11.332;2022-11-20T14:35:08;98671.81;;;1.99;100.00
64675;BME280;51090;51.512;11.332;2022-11-20T14:37:38;98673.22;;;1.93;100.00
64675;BME280;51090;51.512;11.332;2022-11-20T14:42:58;98658.34;;;1.76;100.00